sensor_id;sensor_type;location;lat;lon;timestamp;P1;durP1;ratioP1;P2;durP2;ratioP2
17596;SDS011;8917;50.942;6.946;2023-04-24T00:00:37;1.20;;;1.10;;
17596;SDS011;8917;50.942;6.946;2023-04-24T00:03:07;1.80;;;1.37;;
17596;SDS011;8917;50.942;6.946;2023-04-24T00:05:34;2.07;;;1.30;;
17596;SDS011;8917;50.942;6.946;2023-04-24T00:08:01;1.20;;;1.10;;
17596;SDS011;8917;50.942;6.946;2023-04-24T00:10:29;1.30;;;1.13;;
17596;SDS011;8917;50.942;6.946;2023-04-24T00:12:56;1.43;;;1.20;;
17596;SDS011;8917;50.942;6.946;2023-04-24T00:15:23;2.13;;;1.33;;
17596;SDS011;8917;50.942;6.946;2023-04-24T00:17:50;1.87;;;1.23;;
17596;SDS011;8917;50.942;6.946;2023-04-24T00:20:19;2.83;;;1.30;;
17596;SDS011;8917;50.942;6.946;2023-04-24T00:22:47;1.30;;;1.10;;
17596;SDS011;8917;50.942;6.946;2023-04-24T00:25:15;1.47;;;1.20;;
17596;SDS011;8917;50.942;6.946;2023-04-24T00:27:42;1.47;;;1.20;;
17596;SDS011;8917;50.942;6.946;2023-04-24T00:30:09;1.77;;;1.40;;
17596;SDS011;8917;50.942;6.946;2023-04-24T00:32:36;1.80;;;1.23;;
17596;SDS011;8917;50.942;6.946;2023-04-24T00:35:04;1.50;;;1.20;;
17596;SDS011;8917;50.942;6.946;2023-04-24T00:37:33;1.17;;;1.10;;
17596;SDS011;8917;50.942;6.946;2023-04-24T00:40:00;1.80;;;1.43;;
17596;SDS011;8917;50.942;6.946;2023-04-24T00:42:28;1.00;;;1.00;;
17596;SDS011;8917;50.942;6.946;2023-04-24T00:44:55;1.40;;;1.23;;
17596;SDS011;8917;50.942;6.946;2023-04-24T00:47:23;1.13;;;1.03;;
17596;SDS011;8917;50.942;6.946;2023-04-24T00:49:50;2.00;;;1.30;;
17596;SDS011;8917;50.942;6.946;2023-04-24T00:52:17;1.40;;;1.30;;
17596;SDS011;8917;50.942;6.946;2023-04-24T00:54:46;1.40;;;1.23;;
17596;SDS011;8917;50.942;6.946;2023-04-24T00:57:14;1.37;;;1.27;;
17596;SDS011;8917;50.942;6.946;2023-04-24T00:59:42;2.07;;;1.23;;
17596;SDS011;8917;50.942;6.946;2023-04-24T01:02:10;1.50;;;1.40;;
17596;SDS011;8917;50.942;6.946;2023-04-24T01:04:38;1.30;;;1.20;;
17596;SDS011;8917;50.942;6.946;2023-04-24T01:07:05;3.80;;;1.57;;
17596;SDS011;8917;50.942;6.946;2023-04-24T01:09:35;1.20;;;1.10;;
17596;SDS011;8917;50.942;6.946;2023-04-24T01:12:04;1.57;;;1.40;;
17596;SDS011;8917;50.942;6.946;2023-04-24T01:14:31;1.20;;;1.10;;
17596;SDS011;8917;50.942;6.946;2023-04-24T01:16:58;2.47;;;1.30;;
17596;SDS011;8917;50.942;6.946;2023-04-24T01:19:26;1.40;;;1.30;;
17596;SDS011;8917;50.942;6.946;2023-04-24T01:21:54;1.33;;;1.23;;
17596;SDS011;8917;50.942;6.946;2023-04-24T01:24:26;1.90;;;1.30;;
17596;SDS011;8917;50.942;6.946;2023-04-24T01:26:54;3.20;;;1.40;;
17596;SDS011;8917;50.942;6.946;2023-04-24T01:29:21;1.50;;;1.40;;
17596;SDS011;8917;50.942;6.946;2023-04-24T01:31:49;1.23;;;1.13;;
17596;SDS011;8917;50.942;6.946;2023-04-24T01:34:16;2.23;;;1.70;;
17596;SDS011;8917;50.942;6.946;2023-04-24T01:36:43;1.67;;;1.57;;
17596;SDS011;8917;50.942;6.946;2023-04-24T01:39:12;8.03;;;2.97;;
17596;SDS011;8917;50.942;6.946;2023-04-24T01:41:42;4.87;;;2.80;;
17596;SDS011;8917;50.942;6.946;2023-04-24T01:44:09;3.50;;;2.60;;
17596;SDS011;8917;50.942;6.946;2023-04-24T01:46:36;4.07;;;2.30;;
17596;SDS011;8917;50.942;6.946;2023-04-24T01:49:04;3.20;;;2.60;;
17596;SDS011;8917;50.942;6.946;2023-04-24T01:51:31;2.87;;;2.67;;
17596;SDS011;8917;50.942;6.946;2023-04-24T01:53:59;3.23;;;2.87;;
17596;SDS011;8917;50.942;6.946;2023-04-24T01:56:26;3.43;;;2.80;;
17596;SDS011;8917;50.942;6.946;2023-04-24T01:59:00;3.47;;;2.80;;
17596;SDS011;8917;50.942;6.946;2023-04-24T02:01:31;4.67;;;2.90;;
17596;SDS011;8917;50.942;6.946;2023-04-24T02:04:00;3.40;;;2.77;;
17596;SDS011;8917;50.942;6.946;2023-04-24T02:06:27;3.97;;;3.50;;
17596;SDS011;8917;50.942;6.946;2023-04-24T02:08:56;4.37;;;3.20;;
17596;SDS011;8917;50.942;6.946;2023-04-24T02:11:23;4.73;;;3.13;;
17596;SDS011;8917;50.942;6.946;2023-04-24T02:13:50;4.43;;;3.40;;
17596;SDS011;8917;50.942;6.946;2023-04-24T02:16:19;4.17;;;3.23;;
17596;SDS011;8917;50.942;6.946;2023-04-24T02:18:46;4.10;;;3.60;;
17596;SDS011;8917;50.942;6.946;2023-04-24T02:21:13;3.70;;;3.37;;
17596;SDS011;8917;50.942;6.946;2023-04-24T02:23:40;4.83;;;3.63;;
17596;SDS011;8917;50.942;6.946;2023-04-24T02:26:08;4.57;;;3.47;;
17596;SDS011;8917;50.942;6.946;2023-04-24T02:28:35;5.00;;;3.50;;
17596;SDS011;8917;50.942;6.946;2023-04-24T02:31:02;4.27;;;3.40;;
17596;SDS011;8917;50.942;6.946;2023-04-24T02:33:31;4.30;;;3.70;;
17596;SDS011;8917;50.942;6.946;2023-04-24T02:35:58;4.10;;;3.40;;
17596;SDS011;8917;50.942;6.946;2023-04-24T02:38:26;4.30;;;3.43;;
17596;SDS011;8917;50.942;6.946;2023-04-24T02:40:53;4.60;;;3.53;;
17596;SDS011;8917;50.942;6.946;2023-04-24T02:43:20;4.63;;;3.83;;
17596;SDS011;8917;50.942;6.946;2023-04-24T02:45:47;4.13;;;3.73;;
17596;SDS011;8917;50.942;6.946;2023-04-24T02:48:14;4.60;;;3.80;;
17596;SDS011;8917;50.942;6.946;2023-04-24T02:50:43;5.17;;;3.93;;
17596;SDS011;8917;50.942;6.946;2023-04-24T02:53:10;4.50;;;3.87;;
17596;SDS011;8917;50.942;6.946;2023-04-24T02:55:38;5.33;;;4.17;;
17596;SDS011;8917;50.942;6.946;2023-04-24T02:58:05;4.50;;;4.03;;
17596;SDS011;8917;50.942;6.946;2023-04-24T03:00:32;6.33;;;4.13;;
17596;SDS011;8917;50.942;6.946;2023-04-24T03:02:59;5.57;;;4.57;;
17596;SDS011;8917;50.942;6.946;2023-04-24T03:05:27;5.97;;;4.83;;
17596;SDS011;8917;50.942;6.946;2023-04-24T03:07:57;7.13;;;5.03;;
17596;SDS011;8917;50.942;6.946;2023-04-24T03:10:24;5.00;;;3.97;;
17596;SDS011;8917;50.942;6.946;2023-04-24T03:12:51;7.57;;;4.60;;
17596;SDS011;8917;50.942;6.946;2023-04-24T03:15:20;6.43;;;4.60;;
17596;SDS011;8917;50.942;6.946;2023-04-24T03:17:47;6.63;;;4.50;;
17596;SDS011;8917;50.942;6.946;2023-04-24T03:20:14;5.20;;;4.70;;
17596;SDS011;8917;50.942;6.946;2023-04-24T03:22:41;6.20;;;5.27;;
17596;SDS011;8917;50.942;6.946;2023-04-24T03:25:10;5.67;;;5.17;;
17596;SDS011;8917;50.942;6.946;2023-04-24T03:27:37;5.90;;;5.03;;
17596;SDS011;8917;50.942;6.946;2023-04-24T03:30:06;5.50;;;5.00;;
17596;SDS011;8917;50.942;6.946;2023-04-24T03:32:33;8.43;;;5.43;;
17596;SDS011;8917;50.942;6.946;2023-04-24T03:35:00;6.83;;;4.80;;
17596;SDS011;8917;50.942;6.946;2023-04-24T03:37:28;5.63;;;5.10;;
17596;SDS011;8917;50.942;6.946;2023-04-24T03:39:55;5.87;;;4.77;;
17596;SDS011;8917;50.942;6.946;2023-04-24T03:42:24;6.77;;;4.77;;
17596;SDS011;8917;50.942;6.946;2023-04-24T03:44:51;6.50;;;4.53;;
17596;SDS011;8917;50.942;6.946;2023-04-24T03:47:18;5.07;;;4.57;;
17596;SDS011;8917;50.942;6.946;2023-04-24T03:49:46;5.63;;;4.80;;
17596;SDS011;8917;50.942;6.946;2023-04-24T03:52:13;6.30;;;5.20;;
17596;SDS011;8917;50.942;6.946;2023-04-24T03:54:40;6.17;;;5.13;;
17596;SDS011;8917;50.942;6.946;2023-04-24T03:57:07;5.07;;;4.57;;
17596;SDS011;8917;50.942;6.946;2023-04-24T03:59:36;6.53;;;4.90;;
17596;SDS011;8917;50.942;6.946;2023-04-24T04:02:03;5.27;;;4.77;;
17596;SDS011;8917;50.942;6.946;2023-04-24T04:04:30;6.80;;;4.63;;
17596;SDS011;8917;50.942;6.946;2023-04-24T04:06:57;6.43;;;4.87;;
17596;SDS011;8917;50.942;6.946;2023-04-24T04:09:27;5.40;;;4.83;;
17596;SDS011;8917;50.942;6.946;2023-04-24T04:11:55;7.23;;;4.57;;
17596;SDS011;8917;50.942;6.946;2023-04-24T04:14:22;6.07;;;4.90;;
17596;SDS011;8917;50.942;6.946;2023-04-24T04:16:50;6.57;;;4.43;;
17596;SDS011;8917;50.942;6.946;2023-04-24T04:19:18;6.87;;;4.60;;
17596;SDS011;8917;50.942;6.946;2023-04-24T04:21:45;5.37;;;4.30;;
17596;SDS011;8917;50.942;6.946;2023-04-24T04:24:17;4.77;;;4.30;;
17596;SDS011;8917;50.942;6.946;2023-04-24T04:26:45;5.23;;;3.93;;
17596;SDS011;8917;50.942;6.946;2023-04-24T04:29:12;6.50;;;4.43;;
17596;SDS011;8917;50.942;6.946;2023-04-24T04:31:40;4.70;;;4.00;;
17596;SDS011;8917;50.942;6.946;2023-04-24T04:34:08;7.70;;;4.43;;
17596;SDS011;8917;50.942;6.946;2023-04-24T04:36:36;6.17;;;4.37;;
17596;SDS011;8917;50.942;6.946;2023-04-24T04:39:05;5.23;;;4.57;;
17596;SDS011;8917;50.942;6.946;2023-04-24T04:41:32;6.07;;;5.03;;
17596;SDS011;8917;50.942;6.946;2023-04-24T04:44:00;5.33;;;4.67;;
17596;SDS011;8917;50.942;6.946;2023-04-24T04:46:29;7.67;;;4.60;;
17596;SDS011;8917;50.942;6.946;2023-04-24T04:48:58;5.30;;;4.80;;
17596;SDS011;8917;50.942;6.946;2023-04-24T04:51:27;4.90;;;4.40;;
17596;SDS011;8917;50.942;6.946;2023-04-24T04:53:57;6.83;;;5.80;;
17596;SDS011;8917;50.942;6.946;2023-04-24T04:56:25;6.97;;;4.83;;
17596;SDS011;8917;50.942;6.946;2023-04-24T04:58:52;5.37;;;4.60;;
17596;SDS011;8917;50.942;6.946;2023-04-24T05:01:19;6.43;;;4.53;;
17596;SDS011;8917;50.942;6.946;2023-04-24T05:03:48;5.10;;;4.07;;
17596;SDS011;8917;50.942;6.946;2023-04-24T05:06:15;5.00;;;4.20;;
17596;SDS011;8917;50.942;6.946;2023-04-24T05:08:44;5.17;;;4.67;;
17596;SDS011;8917;50.942;6.946;2023-04-24T05:11:11;5.17;;;4.67;;
17596;SDS011;8917;50.942;6.946;2023-04-24T05:13:38;5.43;;;4.23;;
17596;SDS011;8917;50.942;6.946;2023-04-24T05:16:05;6.10;;;4.70;;
17596;SDS011;8917;50.942;6.946;2023-04-24T05:18:32;4.70;;;4.23;;
17596;SDS011;8917;50.942;6.946;2023-04-24T05:20:59;5.27;;;4.73;;
17596;SDS011;8917;50.942;6.946;2023-04-24T05:23:27;5.60;;;4.20;;
17596;SDS011;8917;50.942;6.946;2023-04-24T05:25:55;5.63;;;4.53;;
17596;SDS011;8917;50.942;6.946;2023-04-24T05:28:23;6.03;;;5.43;;
17596;SDS011;8917;50.942;6.946;2023-04-24T05:30:53;5.27;;;4.37;;
17596;SDS011;8917;50.942;6.946;2023-04-24T05:33:21;7.23;;;5.30;;
17596;SDS011;8917;50.942;6.946;2023-04-24T05:35:48;4.83;;;4.33;;
17596;SDS011;8917;50.942;6.946;2023-04-24T05:38:15;5.97;;;4.37;;
17596;SDS011;8917;50.942;6.946;2023-04-24T05:40:44;6.37;;;4.10;;
17596;SDS011;8917;50.942;6.946;2023-04-24T05:43:13;5.83;;;4.23;;
17596;SDS011;8917;50.942;6.946;2023-04-24T05:45:40;5.43;;;4.23;;
17596;SDS011;8917;50.942;6.946;2023-04-24T05:48:07;4.57;;;4.17;;
17596;SDS011;8917;50.942;6.946;2023-04-24T05:50:34;6.87;;;4.30;;
17596;SDS011;8917;50.942;6.946;2023-04-24T05:53:02;4.70;;;4.20;;
17596;SDS011;8917;50.942;6.946;2023-04-24T05:55:30;5.70;;;4.70;;
17596;SDS011;8917;50.942;6.946;2023-04-24T05:57:57;7.77;;;4.30;;
17596;SDS011;8917;50.942;6.946;2023-04-24T06:00:26;7.53;;;4.63;;
17596;SDS011;8917;50.942;6.946;2023-04-24T06:02:53;4.97;;;4.07;;
17596;SDS011;8917;50.942;6.946;2023-04-24T06:05:20;6.23;;;4.77;;
17596;SDS011;8917;50.942;6.946;2023-04-24T06:07:48;6.73;;;5.33;;
17596;SDS011;8917;50.942;6.946;2023-04-24T06:10:15;6.30;;;4.93;;
17596;SDS011;8917;50.942;6.946;2023-04-24T06:12:42;4.93;;;4.43;;
17596;SDS011;8917;50.942;6.946;2023-04-24T06:15:10;7.13;;;4.43;;
17596;SDS011;8917;50.942;6.946;2023-04-24T06:17:39;4.53;;;4.03;;
17596;SDS011;8917;50.942;6.946;2023-04-24T06:20:06;4.70;;;3.53;;
17596;SDS011;8917;50.942;6.946;2023-04-24T06:22:35;6.13;;;4.30;;
17596;SDS011;8917;50.942;6.946;2023-04-24T06:25:05;4.27;;;3.77;;
17596;SDS011;8917;50.942;6.946;2023-04-24T06:27:32;5.73;;;3.63;;
17596;SDS011;8917;50.942;6.946;2023-04-24T06:30:00;4.13;;;2.97;;
17596;SDS011;8917;50.942;6.946;2023-04-24T06:32:27;2.60;;;2.40;;
17596;SDS011;8917;50.942;6.946;2023-04-24T06:34:57;2.73;;;2.53;;
17596;SDS011;8917;50.942;6.946;2023-04-24T06:37:24;2.83;;;2.30;;
17596;SDS011;8917;50.942;6.946;2023-04-24T06:39:51;5.70;;;2.23;;
17596;SDS011;8917;50.942;6.946;2023-04-24T06:42:19;2.60;;;2.30;;
17596;SDS011;8917;50.942;6.946;2023-04-24T06:44:47;6.23;;;2.30;;
17596;SDS011;8917;50.942;6.946;2023-04-24T06:47:14;2.57;;;1.90;;
17596;SDS011;8917;50.942;6.946;2023-04-24T06:49:41;4.77;;;2.47;;
17596;SDS011;8917;50.942;6.946;2023-04-24T06:52:10;2.27;;;2.07;;
17596;SDS011;8917;50.942;6.946;2023-04-24T06:54:37;3.03;;;1.70;;
17596;SDS011;8917;50.942;6.946;2023-04-24T06:57:08;2.50;;;1.70;;
17596;SDS011;8917;50.942;6.946;2023-04-24T06:59:38;1.90;;;1.70;;
17596;SDS011;8917;50.942;6.946;2023-04-24T07:02:05;2.10;;;1.80;;
17596;SDS011;8917;50.942;6.946;2023-04-24T07:04:33;2.00;;;1.63;;
17596;SDS011;8917;50.942;6.946;2023-04-24T07:07:00;1.90;;;1.40;;
17596;SDS011;8917;50.942;6.946;2023-04-24T07:09:29;1.87;;;1.70;;
17596;SDS011;8917;50.942;6.946;2023-04-24T07:11:56;2.10;;;1.90;;
17596;SDS011;8917;50.942;6.946;2023-04-24T07:14:24;2.23;;;1.60;;
17596;SDS011;8917;50.942;6.946;2023-04-24T07:16:52;3.00;;;1.67;;
17596;SDS011;8917;50.942;6.946;2023-04-24T07:19:19;1.50;;;1.40;;
17596;SDS011;8917;50.942;6.946;2023-04-24T07:21:46;3.60;;;1.67;;
17596;SDS011;8917;50.942;6.946;2023-04-24T07:24:14;1.63;;;1.53;;
17596;SDS011;8917;50.942;6.946;2023-04-24T07:26:43;3.33;;;1.93;;
17596;SDS011;8917;50.942;6.946;2023-04-24T07:29:11;2.73;;;1.67;;
17596;SDS011;8917;50.942;6.946;2023-04-24T07:31:40;1.80;;;1.70;;
17596;SDS011;8917;50.942;6.946;2023-04-24T07:34:07;2.17;;;1.70;;
17596;SDS011;8917;50.942;6.946;2023-04-24T07:36:35;4.80;;;1.80;;
17596;SDS011;8917;50.942;6.946;2023-04-24T07:39:03;2.77;;;1.50;;
17596;SDS011;8917;50.942;6.946;2023-04-24T07:41:30;3.40;;;1.90;;
17596;SDS011;8917;50.942;6.946;2023-04-24T07:43:59;1.40;;;1.30;;
17596;SDS011;8917;50.942;6.946;2023-04-24T07:46:26;2.33;;;1.40;;
17596;SDS011;8917;50.942;6.946;2023-04-24T07:48:54;2.57;;;1.43;;
17596;SDS011;8917;50.942;6.946;2023-04-24T07:51:22;3.80;;;1.30;;
17596;SDS011;8917;50.942;6.946;2023-04-24T07:53:52;1.07;;;0.97;;
17596;SDS011;8917;50.942;6.946;2023-04-24T07:56:20;2.13;;;1.13;;
17596;SDS011;8917;50.942;6.946;2023-04-24T07:58:47;1.30;;;1.20;;
17596;SDS011;8917;50.942;6.946;2023-04-24T08:01:16;4.53;;;1.20;;
17596;SDS011;8917;50.942;6.946;2023-04-24T08:03:44;2.37;;;1.40;;
17596;SDS011;8917;50.942;6.946;2023-04-24T08:06:11;5.63;;;2.87;;
17596;SDS011;8917;50.942;6.946;2023-04-24T08:08:39;3.20;;;1.20;;
17596;SDS011;8917;50.942;6.946;2023-04-24T08:11:06;2.20;;;1.23;;
17596;SDS011;8917;50.942;6.946;2023-04-24T08:13:34;1.00;;;1.00;;
17596;SDS011;8917;50.942;6.946;2023-04-24T08:16:01;1.37;;;1.10;;
17596;SDS011;8917;50.942;6.946;2023-04-24T08:18:31;1.73;;;1.20;;
17596;SDS011;8917;50.942;6.946;2023-04-24T08:21:04;2.10;;;1.40;;
17596;SDS011;8917;50.942;6.946;2023-04-24T08:23:31;1.97;;;1.10;;
17596;SDS011;8917;50.942;6.946;2023-04-24T08:25:58;3.43;;;1.20;;
17596;SDS011;8917;50.942;6.946;2023-04-24T08:28:26;1.67;;;1.43;;
17596;SDS011;8917;50.942;6.946;2023-04-24T08:30:53;3.53;;;1.27;;
17596;SDS011;8917;50.942;6.946;2023-04-24T08:33:21;1.40;;;1.10;;
17596;SDS011;8917;50.942;6.946;2023-04-24T08:35:50;0.90;;;0.90;;
17596;SDS011;8917;50.942;6.946;2023-04-24T08:38:17;1.10;;;1.00;;
17596;SDS011;8917;50.942;6.946;2023-04-24T08:40:47;1.40;;;1.13;;
17596;SDS011;8917;50.942;6.946;2023-04-24T08:43:14;2.40;;;1.20;;
17596;SDS011;8917;50.942;6.946;2023-04-24T08:45:42;1.50;;;1.10;;
17596;SDS011;8917;50.942;6.946;2023-04-24T08:48:10;1.30;;;1.20;;
17596;SDS011;8917;50.942;6.946;2023-04-24T08:50:37;1.67;;;1.13;;
17596;SDS011;8917;50.942;6.946;2023-04-24T08:53:08;3.37;;;1.30;;
17596;SDS011;8917;50.942;6.946;2023-04-24T08:55:35;1.50;;;1.30;;
17596;SDS011;8917;50.942;6.946;2023-04-24T08:58:04;2.57;;;1.90;;
17596;SDS011;8917;50.942;6.946;2023-04-24T09:00:31;1.70;;;1.50;;
17596;SDS011;8917;50.942;6.946;2023-04-24T09:03:00;1.67;;;1.57;;
17596;SDS011;8917;50.942;6.946;2023-04-24T09:05:27;2.43;;;1.60;;
17596;SDS011;8917;50.942;6.946;2023-04-24T09:07:55;1.97;;;1.77;;
17596;SDS011;8917;50.942;6.946;2023-04-24T09:10:24;3.40;;;2.00;;
17596;SDS011;8917;50.942;6.946;2023-04-24T09:12:55;2.70;;;2.07;;
17596;SDS011;8917;50.942;6.946;2023-04-24T09:15:23;2.03;;;1.90;;
17596;SDS011;8917;50.942;6.946;2023-04-24T09:17:51;3.13;;;2.40;;
17596;SDS011;8917;50.942;6.946;2023-04-24T09:20:19;7.17;;;2.33;;
17596;SDS011;8917;50.942;6.946;2023-04-24T09:22:46;3.17;;;2.20;;
17596;SDS011;8917;50.942;6.946;2023-04-24T09:25:14;2.83;;;2.30;;
17596;SDS011;8917;50.942;6.946;2023-04-24T09:27:43;10.53;;;9.03;;
17596;SDS011;8917;50.942;6.946;2023-04-24T09:30:12;4.27;;;2.67;;
17596;SDS011;8917;50.942;6.946;2023-04-24T09:32:39;5.23;;;3.03;;
17596;SDS011;8917;50.942;6.946;2023-04-24T09:35:08;4.13;;;3.30;;
17596;SDS011;8917;50.942;6.946;2023-04-24T09:37:37;3.80;;;3.30;;
17596;SDS011;8917;50.942;6.946;2023-04-24T09:40:11;5.13;;;3.37;;
17596;SDS011;8917;50.942;6.946;2023-04-24T09:42:39;7.43;;;3.40;;
17596;SDS011;8917;50.942;6.946;2023-04-24T09:45:10;5.43;;;3.50;;
17596;SDS011;8917;50.942;6.946;2023-04-24T09:47:37;6.13;;;3.03;;
17596;SDS011;8917;50.942;6.946;2023-04-24T09:50:12;4.70;;;3.23;;
17596;SDS011;8917;50.942;6.946;2023-04-24T09:52:40;6.40;;;4.27;;
17596;SDS011;8917;50.942;6.946;2023-04-24T09:55:15;9.50;;;5.30;;
17596;SDS011;8917;50.942;6.946;2023-04-24T09:57:47;5.57;;;3.67;;
17596;SDS011;8917;50.942;6.946;2023-04-24T10:00:18;7.77;;;4.30;;
17596;SDS011;8917;50.942;6.946;2023-04-24T10:02:49;5.20;;;3.73;;
17596;SDS011;8917;50.942;6.946;2023-04-24T10:05:17;7.20;;;3.87;;
17596;SDS011;8917;50.942;6.946;2023-04-24T10:07:44;6.63;;;3.67;;
17596;SDS011;8917;50.942;6.946;2023-04-24T10:10:12;6.27;;;3.83;;
17596;SDS011;8917;50.942;6.946;2023-04-24T10:12:39;4.53;;;3.40;;
17596;SDS011;8917;50.942;6.946;2023-04-24T10:15:07;4.63;;;3.30;;
17596;SDS011;8917;50.942;6.946;2023-04-24T10:17:36;7.30;;;3.20;;
17596;SDS011;8917;50.942;6.946;2023-04-24T10:20:03;4.03;;;3.30;;
17596;SDS011;8917;50.942;6.946;2023-04-24T10:22:32;6.63;;;2.87;;
17596;SDS011;8917;50.942;6.946;2023-04-24T10:25:00;4.97;;;3.80;;
17596;SDS011;8917;50.942;6.946;2023-04-24T10:27:30;4.90;;;3.30;;
17596;SDS011;8917;50.942;6.946;2023-04-24T10:29:57;4.20;;;3.10;;
17596;SDS011;8917;50.942;6.946;2023-04-24T10:32:25;4.33;;;2.90;;
17596;SDS011;8917;50.942;6.946;2023-04-24T10:34:54;4.63;;;3.00;;
17596;SDS011;8917;50.942;6.946;2023-04-24T10:37:21;5.70;;;2.60;;
17596;SDS011;8917;50.942;6.946;2023-04-24T10:39:49;9.53;;;3.40;;
17596;SDS011;8917;50.942;6.946;2023-04-24T10:42:19;4.90;;;3.17;;
17596;SDS011;8917;50.942;6.946;2023-04-24T10:44:48;5.17;;;2.90;;
17596;SDS011;8917;50.942;6.946;2023-04-24T10:47:15;4.50;;;2.90;;
17596;SDS011;8917;50.942;6.946;2023-04-24T10:49:42;4.83;;;3.00;;
17596;SDS011;8917;50.942;6.946;2023-04-24T10:52:11;6.17;;;3.17;;
17596;SDS011;8917;50.942;6.946;2023-04-24T10:54:41;7.43;;;2.93;;
17596;SDS011;8917;50.942;6.946;2023-04-24T10:57:27;8.33;;;3.07;;
17596;SDS011;8917;50.942;6.946;2023-04-24T11:02:42;7.70;;;3.40;;
17596;SDS011;8917;50.942;6.946;2023-04-24T11:05:15;8.17;;;3.07;;
17596;SDS011;8917;50.942;6.946;2023-04-24T11:10:30;7.40;;;3.60;;
17596;SDS011;8917;50.942;6.946;2023-04-24T11:12:57;7.33;;;3.27;;
17596;SDS011;8917;50.942;6.946;2023-04-24T11:15:24;6.03;;;3.17;;
17596;SDS011;8917;50.942;6.946;2023-04-24T11:17:51;5.00;;;3.00;;
17596;SDS011;8917;50.942;6.946;2023-04-24T11:20:23;5.83;;;3.17;;
17596;SDS011;8917;50.942;6.946;2023-04-24T11:22:52;14.17;;;3.90;;
17596;SDS011;8917;50.942;6.946;2023-04-24T11:25:22;7.30;;;3.10;;
17596;SDS011;8917;50.942;6.946;2023-04-24T11:27:52;6.03;;;3.53;;
17596;SDS011;8917;50.942;6.946;2023-04-24T11:30:29;7.93;;;4.00;;
17596;SDS011;8917;50.942;6.946;2023-04-24T11:32:56;8.60;;;4.20;;
17596;SDS011;8917;50.942;6.946;2023-04-24T11:35:29;7.83;;;3.10;;
17596;SDS011;8917;50.942;6.946;2023-04-24T11:37:56;6.87;;;3.47;;
17596;SDS011;8917;50.942;6.946;2023-04-24T11:40:25;7.37;;;3.87;;
17596;SDS011;8917;50.942;6.946;2023-04-24T11:42:53;8.50;;;3.87;;
17596;SDS011;8917;50.942;6.946;2023-04-24T11:45:21;7.80;;;4.40;;
17596;SDS011;8917;50.942;6.946;2023-04-24T11:47:49;6.53;;;3.50;;
17596;SDS011;8917;50.942;6.946;2023-04-24T11:50:17;13.77;;;3.90;;
17596;SDS011;8917;50.942;6.946;2023-04-24T11:52:45;8.87;;;3.77;;
17596;SDS011;8917;50.942;6.946;2023-04-24T11:55:22;5.63;;;3.60;;
17596;SDS011;8917;50.942;6.946;2023-04-24T11:57:52;12.87;;;3.97;;
17596;SDS011;8917;50.942;6.946;2023-04-24T12:00:23;8.47;;;4.27;;
17596;SDS011;8917;50.942;6.946;2023-04-24T12:02:51;12.47;;;4.10;;
17596;SDS011;8917;50.942;6.946;2023-04-24T12:05:19;10.03;;;4.53;;
17596;SDS011;8917;50.942;6.946;2023-04-24T12:07:46;9.83;;;4.00;;
17596;SDS011;8917;50.942;6.946;2023-04-24T12:10:14;8.77;;;3.90;;
17596;SDS011;8917;50.942;6.946;2023-04-24T12:12:41;7.67;;;3.40;;
17596;SDS011;8917;50.942;6.946;2023-04-24T12:15:15;7.57;;;3.80;;
17596;SDS011;8917;50.942;6.946;2023-04-24T12:17:44;5.57;;;3.40;;
17596;SDS011;8917;50.942;6.946;2023-04-24T12:20:12;8.50;;;3.63;;
17596;SDS011;8917;50.942;6.946;2023-04-24T12:22:43;6.70;;;3.60;;
17596;SDS011;8917;50.942;6.946;2023-04-24T12:25:11;6.43;;;3.80;;
17596;SDS011;8917;50.942;6.946;2023-04-24T12:27:39;6.77;;;3.97;;
17596;SDS011;8917;50.942;6.946;2023-04-24T12:30:09;6.03;;;4.20;;
17596;SDS011;8917;50.942;6.946;2023-04-24T12:32:40;9.13;;;5.20;;
17596;SDS011;8917;50.942;6.946;2023-04-24T12:35:09;16.87;;;10.00;;
17596;SDS011;8917;50.942;6.946;2023-04-24T12:37:36;9.87;;;4.27;;
17596;SDS011;8917;50.942;6.946;2023-04-24T12:40:05;11.23;;;4.30;;
17596;SDS011;8917;50.942;6.946;2023-04-24T12:42:33;12.90;;;4.97;;
17596;SDS011;8917;50.942;6.946;2023-04-24T12:45:02;7.63;;;4.00;;
17596;SDS011;8917;50.942;6.946;2023-04-24T12:47:30;7.93;;;4.17;;
17596;SDS011;8917;50.942;6.946;2023-04-24T12:49:57;6.70;;;4.00;;
17596;SDS011;8917;50.942;6.946;2023-04-24T12:52:26;9.87;;;4.70;;
17596;SDS011;8917;50.942;6.946;2023-04-24T12:54:54;10.87;;;4.77;;
17596;SDS011;8917;50.942;6.946;2023-04-24T12:57:22;7.03;;;3.90;;
17596;SDS011;8917;50.942;6.946;2023-04-24T12:59:49;8.67;;;4.40;;
17596;SDS011;8917;50.942;6.946;2023-04-24T13:02:16;9.00;;;3.50;;
17596;SDS011;8917;50.942;6.946;2023-04-24T13:04:44;7.87;;;3.60;;
17596;SDS011;8917;50.942;6.946;2023-04-24T13:07:12;9.37;;;3.63;;
17596;SDS011;8917;50.942;6.946;2023-04-24T13:09:42;8.17;;;3.90;;
17596;SDS011;8917;50.942;6.946;2023-04-24T13:12:10;6.60;;;3.77;;
17596;SDS011;8917;50.942;6.946;2023-04-24T13:14:37;7.30;;;3.90;;
17596;SDS011;8917;50.942;6.946;2023-04-24T13:17:04;8.10;;;4.40;;
17596;SDS011;8917;50.942;6.946;2023-04-24T13:19:35;6.10;;;3.60;;
17596;SDS011;8917;50.942;6.946;2023-04-24T13:22:02;7.30;;;3.97;;
17596;SDS011;8917;50.942;6.946;2023-04-24T13:24:30;8.73;;;3.87;;
17596;SDS011;8917;50.942;6.946;2023-04-24T13:26:59;10.27;;;4.47;;
17596;SDS011;8917;50.942;6.946;2023-04-24T13:29:27;7.10;;;4.00;;
17596;SDS011;8917;50.942;6.946;2023-04-24T13:31:55;8.93;;;4.03;;
17596;SDS011;8917;50.942;6.946;2023-04-24T13:34:22;7.53;;;4.00;;
17596;SDS011;8917;50.942;6.946;2023-04-24T13:36:49;8.43;;;3.87;;
17596;SDS011;8917;50.942;6.946;2023-04-24T13:39:17;6.60;;;3.80;;
17596;SDS011;8917;50.942;6.946;2023-04-24T13:41:44;6.30;;;4.07;;
17596;SDS011;8917;50.942;6.946;2023-04-24T13:44:14;9.33;;;4.17;;
17596;SDS011;8917;50.942;6.946;2023-04-24T13:46:41;8.43;;;3.63;;
17596;SDS011;8917;50.942;6.946;2023-04-24T13:49:10;6.03;;;3.73;;
17596;SDS011;8917;50.942;6.946;2023-04-24T13:51:37;7.13;;;3.83;;
17596;SDS011;8917;50.942;6.946;2023-04-24T13:54:05;8.37;;;3.53;;
17596;SDS011;8917;50.942;6.946;2023-04-24T13:56:34;7.83;;;4.53;;
17596;SDS011;8917;50.942;6.946;2023-04-24T13:59:03;8.67;;;3.73;;
17596;SDS011;8917;50.942;6.946;2023-04-24T14:01:34;7.57;;;4.10;;
17596;SDS011;8917;50.942;6.946;2023-04-24T14:04:02;6.43;;;4.27;;
17596;SDS011;8917;50.942;6.946;2023-04-24T14:06:29;8.93;;;4.40;;
17596;SDS011;8917;50.942;6.946;2023-04-24T14:08:57;7.13;;;3.70;;
17596;SDS011;8917;50.942;6.946;2023-04-24T14:11:24;8.63;;;3.10;;
17596;SDS011;8917;50.942;6.946;2023-04-24T14:13:53;6.57;;;3.40;;
17596;SDS011;8917;50.942;6.946;2023-04-24T14:16:22;5.63;;;3.07;;
17596;SDS011;8917;50.942;6.946;2023-04-24T14:18:51;5.67;;;3.73;;
17596;SDS011;8917;50.942;6.946;2023-04-24T14:21:18;11.70;;;4.40;;
17596;SDS011;8917;50.942;6.946;2023-04-24T14:23:45;7.47;;;4.20;;
17596;SDS011;8917;50.942;6.946;2023-04-24T14:26:17;5.43;;;4.17;;
17596;SDS011;8917;50.942;6.946;2023-04-24T14:28:44;9.33;;;3.70;;
17596;SDS011;8917;50.942;6.946;2023-04-24T14:31:11;6.67;;;3.73;;
17596;SDS011;8917;50.942;6.946;2023-04-24T14:33:38;5.30;;;3.60;;
17596;SDS011;8917;50.942;6.946;2023-04-24T14:36:07;4.37;;;3.60;;
17596;SDS011;8917;50.942;6.946;2023-04-24T14:38:34;6.63;;;3.10;;
17596;SDS011;8917;50.942;6.946;2023-04-24T14:41:02;5.83;;;3.53;;
17596;SDS011;8917;50.942;6.946;2023-04-24T14:43:34;5.17;;;3.73;;
17596;SDS011;8917;50.942;6.946;2023-04-24T14:46:01;6.30;;;3.67;;
17596;SDS011;8917;50.942;6.946;2023-04-24T14:48:28;6.10;;;4.00;;
17596;SDS011;8917;50.942;6.946;2023-04-24T14:50:56;7.40;;;4.00;;
17596;SDS011;8917;50.942;6.946;2023-04-24T14:53:24;8.70;;;4.10;;
17596;SDS011;8917;50.942;6.946;2023-04-24T14:55:52;6.67;;;4.20;;
17596;SDS011;8917;50.942;6.946;2023-04-24T14:58:19;5.07;;;3.80;;
17596;SDS011;8917;50.942;6.946;2023-04-24T15:00:46;6.43;;;3.80;;
17596;SDS011;8917;50.942;6.946;2023-04-24T15:03:16;4.37;;;3.70;;
17596;SDS011;8917;50.942;6.946;2023-04-24T15:05:44;6.43;;;4.00;;
17596;SDS011;8917;50.942;6.946;2023-04-24T15:08:11;4.90;;;3.27;;
17596;SDS011;8917;50.942;6.946;2023-04-24T15:10:39;5.03;;;3.60;;